GCXO/TFN METAR and TAF weather

Enter ICAO airport designator
Station Type Date Time Source
GCXO METAR 2019/07/20 20:00 UTC NOAA

GCXO 202000Z 30013KT 9999 3500NW BCFG FEW001 SCT004 BKN010 18/16 Q1021 NOSIG


Station Type Date Time Source
GCXO Decoded METAR 2019/07/20 20:00 UTC NOAA

Tenerife / Los Rodeos, Spain (GCXO) 28-28N 016-19W 617M
Jul 20, 2019 - 04:00 PM EDT / 2019.07.20 2000 UTC
Wind: from the WNW (300 degrees) at 15 MPH (13 KT):0
Visibility: greater than 7 mile(s):0
Sky conditions: mostly cloudy
Weather: patches of fog
Temperature: 64 F (18 C)
Dew Point: 60 F (16 C)
Relative Humidity: 88%
Pressure (altimeter): 30.15 in. Hg (1021 hPa)
ob: GCXO 202000Z 30013KT 9999 3500NW BCFG FEW001 SCT004 BKN010 18/16 Q1021 NOSIG
cycle: 20

Station Type Date Time Source
GCXO TAF 2019/07/20 19:39 UTC NOAA

TAF
AMD TAF
AMD GCXO 201935Z 2019/2115 31016KT 9999 BKN010 TX21/2114Z TN16/2105Z
TEMPO 2019/2021 SCT012
TEMPO 2019/2107 2000 BCFG BKN003 PROB30
TEMPO 2020/2103 1000 BCFG BKN001

Example: see airport list